Архив погоды в Досанге

Метеограмма Досанг
Среда, 17 Июля
Время местн. Темп Ветер Видим Явления Облачность нижн/средн/верх Атм. давл. Влжн Точка росы ВНГО R Сост. почвы Tg s
Напр Скр Прв ур.ст ур.м изм
03:00 +19° С,С-З 2 - 10 км - переменная облачность 757 755 -0.4 79% +15.2° - - - - -
00:00 +19.2° З,С-З 2 - 10 км зарница преимущественно облачно 757 756 +0.4 85% +16.6° 1 км - - - -
Вторник, 16 Июля
Время местн. Темп Ветер Видим Явления Облачность нижн/средн/верх Атм. давл. Влжн Точка росы ВНГО R Сост. почвы Tg s
Напр Скр Прв ур.ст ур.м изм
21:00 +20° С-В 3 - 10 км гроза {ливневые осадки} преимущественно облачно 757 755 +0.3 80% +16.4° 1 км - - - -
18:00 +20.9° В,С-В 4 - 20 км гроза без осадков {ливневые осадки} облачно 757 755 -0.5 73% +15.9° 1 км - - - -
15:00 +21° В 7 11 10 км слабая или умеренная гроза с осадками облачно 757 755 -0.8 79% +17.3° 1 км - - - -
12:00 +19.4° С,С-В 3 - 4 км умеренный или сильный ливневый дождь {гроза} облачно 758 756 0 82% +16.3° 1 км - - - -
09:00 +20.6° С,С-В 4 - 10 км слабая или умеренная гроза с осадками облачно 759 757 +0.6 79% +16.9° 1 км - - - -
06:00 +21.9° штиль 0 - 20 км - облачно 758 756 +0.5 65% +15.1° 1 км - Сухая (без трещин) - -
03:00 +20.9° С-В 2 - 10 км - преимущественно облачно 758 756 -0.6 71% +15.4° - - - - -
00:00 +21° штиль 0 - 10 км - облачно с прояснениями 758 757 +0.2 75% +16.3° - - - - -
Понедельник, 15 Июля
Время местн. Темп Ветер Видим Явления Облачность нижн/средн/верх Атм. давл. Влжн Точка росы ВНГО R Сост. почвы Tg s
Напр Скр Прв ур.ст ур.м изм
21:00 +23.8° Ю 1 - 10 км - переменная облачность 758 756 +0.8 60% +15.6° - - - - -
18:00 +29.5° Ю,Ю-З 2 - 20 км - переменная облачность 757 756 -0.5 29% +9.5° 1 км - - - -
15:00 +29.9° Ю 2 - 20 км - переменная облачность 758 756 -0.7 26% +8.3° 1 км - - - -
12:00 +28.5° Ю 1 - 20 км - переменная облачность 758 757 -0.2 33% +10.5° 1 км - - - -
09:00 +25.2° З,С-З 1 - 20 км - ясно 759 757 -0.1 47% +13° более 2.5 км - - - -
06:00 +17.6° Ю-З 2 - 20 км - ясно 759 757 +0.6 82% +14.4° более 2.5 км - Влажная (без луж) - -
03:00 +15.9° Ю-З 1 - 10 км - ясно 758 756 -0.2 86% +13.5° более 2.5 км - - - -
00:00 +17.5° Ю,Ю-З 2 - 10 км - преимущественно облачно 758 757 -0.8 80% +14.1° более 2.5 км - - - -
Воскресенье, 14 Июля
Время местн. Темп Ветер Видим Явления Облачность нижн/средн/верх Атм. давл. Влжн Точка росы ВНГО R Сост. почвы Tg s
Напр Скр Прв ур.ст ур.м изм
21:00 +19° Ю 2 - 10 км - переменная облачность 759 757 +0.1 66% +12.5° - - - - -
18:00 +21.2° Ю 4 - 20 км - облачно 759 757 -0.5 65% +14.4° 1 км - - - -
15:00 +22.2° Ю,Ю-В 5 - 20 км - облачно 759 758 +0.2 62% +14.6° - - - - -
12:00 +22.2° Ю 1 - 20 км - облачно 759 758 -0.1 66% +15.6° - - - - -
09:00 +20.9° штиль 0 - 20 км - облачно 759 758 +0.3 70% +15.2° - - - - -
06:00 +17.7° С 1 - 20 км - облачно 759 757 -0.2 77% +13.7° - - Влажная (без луж) - -
03:00 +18.4° З,С-З 2 - 10 км - облачно 759 758 -0.2 71% +13.1° - - - - -
00:00 +18.9° З 2 - 10 км - облачно 759 758 0 67% +12.6° более 2.5 км - - - -